Time;durP1;ratioP1;P1;durP2;ratioP2;P2;SDS_P1;SDS_P2;PMS_P1;PMS_P2;Temp;Humidity;BMP_temperature;BMP_pressure;BME280_temperature;BME280_humidity;BME280_pressure;Samples;Min_cycle;Max_cycle;Signal;HPM_P1;HPM_P2
2023/01/24 00:01:18;;;;;;;21.10;10.63;;;;;;;2.47;100.00;101159.75;5074947;28;20260;-73
2023/01/24 00:03:44;;;;;;;24.90;11.83;;;;;;;2.46;100.00;101165.13;5073359;28;20307;-73
2023/01/24 00:06:09;;;;;;;22.40;10.77;;;;;;;2.50;100.00;101158.72;5074799;28;20261;-73
2023/01/24 00:08:35;;;;;;;22.80;11.33;;;;;;;2.38;100.00;101154.22;5074961;28;20024;-73
2023/01/24 00:11:04;;;;;;;24.97;11.60;;;;;;;2.44;100.00;101165.22;5074488;28;20051;-73
2023/01/24 00:13:29;;;;;;;21.17;11.03;;;;;;;2.46;100.00;101159.84;5073364;28;20444;-73
2023/01/24 00:16:06;;;;;;;23.40;11.83;;;;;;;2.38;100.00;101152.41;5074268;28;20261;-74
2023/01/24 00:18:35;;;;;;;23.60;10.83;;;;;;;2.40;100.00;101158.47;5074526;28;20024;-73
2023/01/24 00:21:08;;;;;;;24.33;11.30;;;;;;;2.40;100.00;101155.81;5074505;28;20719;-73
2023/01/24 00:23:35;;;;;;;;;;;;;;;2.40;100.00;101161.09;5075522;28;20310;-73
2023/01/24 00:26:00;;;;;;;21.93;10.97;;;;;;;2.47;100.00;101151.84;5073168;28;19959;-73
2023/01/24 00:28:25;;;;;;;23.27;10.83;;;;;;;2.53;100.00;101150.63;5074521;28;20667;-73
2023/01/24 00:30:51;;;;;;;19.13;10.23;;;;;;;2.49;100.00;101155.25;5074534;28;20387;-73
2023/01/24 00:33:17;;;;;;;19.63;10.53;;;;;;;2.43;100.00;101158.25;5073016;28;20401;-73
2023/01/24 00:35:42;;;;;;;21.57;10.47;;;;;;;2.36;100.00;101164.84;5074544;28;20056;-73
2023/01/24 00:38:07;;;;;;;20.40;10.40;;;;;;;2.38;100.00;101156.84;5074313;28;20037;-73
2023/01/24 00:40:33;;;;;;;22.80;11.33;;;;;;;2.35;100.00;101154.41;5074180;28;20058;-73
2023/01/24 00:42:58;;;;;;;21.07;10.60;;;;;;;2.42;100.00;101161.00;5073866;28;20036;-74
2023/01/24 00:45:24;;;;;;;21.00;10.37;;;;;;;2.48;100.00;101153.53;5074207;28;20103;-73
2023/01/24 00:47:49;;;;;;;20.70;10.47;;;;;;;2.41;100.00;101160.16;5074160;28;20469;-73
2023/01/24 00:50:15;;;;;;;22.80;11.17;;;;;;;2.40;100.00;101160.25;5074068;28;20035;-74
2023/01/24 00:52:40;;;;;;;20.50;10.47;;;;;;;2.40;100.00;101158.47;5074028;28;20040;-74
2023/01/24 00:55:06;;;;;;;20.97;10.97;;;;;;;2.38;100.00;101162.97;5074082;28;20032;-74
2023/01/24 00:57:31;;;;;;;21.03;10.60;;;;;;;2.48;100.00;101168.53;5074154;28;20044;-73
2023/01/24 00:59:57;;;;;;;23.20;11.57;;;;;;;2.44;100.00;101167.00;5074196;28;20401;-73
2023/01/24 01:02:22;;;;;;;23.13;11.93;;;;;;;2.45;100.00;101171.34;5073983;28;20028;-74
2023/01/24 01:04:48;;;;;;;21.23;11.37;;;;;;;2.37;100.00;101161.28;5074016;28;20122;-73
2023/01/24 01:07:14;;;;;;;22.50;10.43;;;;;;;2.44;100.00;101170.50;5073734;28;20089;-73
2023/01/24 01:09:39;;;;;;;21.70;10.60;;;;;;;2.29;100.00;101171.47;5073531;28;20057;-74
2023/01/24 01:12:05;;;;;;;25.43;11.80;;;;;;;2.25;100.00;101182.28;5073637;28;20111;-73
2023/01/24 01:14:31;;;;;;;21.67;10.90;;;;;;;2.42;100.00;101179.47;5073704;28;20036;-74
2023/01/24 01:16:59;;;;;;;21.17;11.07;;;;;;;2.56;100.00;101184.72;5073597;28;20039;-73
2023/01/24 01:19:25;;;;;;;23.50;11.40;;;;;;;2.49;100.00;101175.50;5073626;28;20032;-73
2023/01/24 01:21:50;;;;;;;23.43;11.67;;;;;;;2.45;100.00;101179.25;5073514;28;20265;-74
2023/01/24 01:24:20;;;;;;;21.27;11.30;;;;;;;2.45;100.00;101179.25;5071935;28;20627;-73
2023/01/24 01:26:45;;;;;;;22.83;11.63;;;;;;;2.52;100.00;101183.22;5073352;28;20119;-73
2023/01/24 01:29:11;;;;;;;22.17;11.37;;;;;;;2.51;100.00;101178.91;5071998;28;20348;-73
2023/01/24 01:31:36;;;;;;;21.67;11.27;;;;;;;2.45;100.00;101180.09;5073212;28;20177;-74
2023/01/24 01:34:02;;;;;;;22.80;11.70;;;;;;;2.35;100.00;101178.13;5073279;28;20029;-74
2023/01/24 01:36:27;;;;;;;22.47;11.53;;;;;;;2.44;100.00;101188.13;5073130;28;20036;-73
2023/01/24 01:38:53;;;;;;;22.27;11.37;;;;;;;2.38;100.00;101196.44;5073033;28;20031;-74
2023/01/24 01:41:19;;;;;;;23.20;11.77;;;;;;;2.48;100.00;101195.75;5073086;28;20477;-73
2023/01/24 01:46:34;;;;;;;21.90;11.43;;;;;;;2.36;100.00;101195.66;5072848;28;20051;-74
2023/01/24 01:49:04;;;;;;;24.00;12.30;;;;;;;2.37;100.00;101205.28;5072943;28;20272;-74
2023/01/24 01:51:46;;;;;;;22.67;11.70;;;;;;;2.43;100.00;101202.25;5072814;28;20273;-73
2023/01/24 01:54:18;;;;;;;24.80;13.10;;;;;;;2.41;100.00;101201.53;5072364;28;20630;-73
2023/01/24 01:57:12;;;;;;;22.23;12.03;;;;;;;2.45;100.00;101208.28;5071286;28;20268;-73
2023/01/24 01:59:43;;;;;;;22.57;12.27;;;;;;;2.45;100.00;101203.00;5072526;28;20284;-73
2023/01/24 02:02:10;;;;;;;24.17;11.93;;;;;;;2.48;100.00;101200.19;5072621;28;20304;-74
2023/01/24 02:04:40;;;;;;;23.70;11.70;;;;;;;2.43;100.00;101207.53;5072709;28;20273;-73
2023/01/24 02:07:21;;;;;;;24.43;11.90;;;;;;;2.34;100.00;101211.59;5072534;28;20631;-73
2023/01/24 02:09:49;;;;;;;27.70;12.93;;;;;;;2.36;100.00;101209.72;5072106;28;20257;-73
2023/01/24 02:12:49;;;;;;;26.40;12.40;;;;;;;2.49;100.00;101220.34;5072406;28;20797;-74
2023/01/24 02:18:03;;;;;;;25.07;11.90;;;;;;;2.42;100.00;101209.31;5070109;28;20334;-74
2023/01/24 02:20:48;;;;;;;26.60;12.20;;;;;;;2.40;100.00;101210.38;5070146;28;20261;-74
2023/01/24 02:23:25;;;;;;;25.97;13.03;;;;;;;2.39;100.00;101217.44;5069937;28;20316;-73
2023/01/24 02:26:10;;;;;;;27.97;12.87;;;;;;;2.48;100.00;101213.38;5070034;28;20383;-73
2023/01/24 02:28:36;;;;;;;24.20;12.80;;;;;;;2.41;100.00;101214.72;5070136;28;20307;-73
2023/01/24 02:31:03;;;;;;;26.17;12.53;;;;;;;2.42;100.00;101214.59;5069701;28;20292;-74
2023/01/24 02:33:30;;;;;;;27.20;13.17;;;;;;;2.46;100.00;101220.53;5069777;28;20669;-73
2023/01/24 02:36:28;;;;;;;30.57;13.63;;;;;;;2.59;100.00;101212.72;5069813;28;20293;-74
2023/01/24 02:39:01;;;;;;;26.63;12.97;;;;;;;2.57;100.00;101220.72;5069926;28;20280;-74
2023/01/24 02:41:49;;;;;;;25.27;13.18;;;;;;;2.57;100.00;101212.81;5069984;28;20277;-73
2023/01/24 02:44:21;;;;;;;27.77;13.30;;;;;;;2.50;100.00;101217.63;5068923;28;20521;-74
2023/01/24 02:46:46;;;;;;;26.97;12.80;;;;;;;2.57;100.00;101219.88;5069743;28;20262;-73
2023/01/24 02:49:12;;;;;;;28.10;12.87;;;;;;;2.56;100.00;101213.75;5069701;28;20265;-73
2023/01/24 02:54:22;;;;;;;28.50;13.77;;;;;;;2.45;100.00;101218.84;5071862;28;20032;-73
2023/01/24 02:59:32;;;;;;;29.77;14.17;;;;;;;2.40;100.00;101213.00;5071800;28;20086;-73
2023/01/24 03:01:58;;;;;;;29.37;13.60;;;;;;;2.23;100.00;101213.19;5071984;28;20269;-73
2023/01/24 03:04:23;;;;;;;29.40;13.93;;;;;;;2.26;100.00;101213.00;5071668;28;20029;-73
2023/01/24 03:06:49;;;;;;;30.90;13.47;;;;;;;2.29;100.00;101213.66;5071558;28;20112;-73
2023/01/24 03:09:18;;;;;;;26.40;12.83;;;;;;;2.40;100.00;101210.38;5071520;28;20392;-73
2023/01/24 03:11:47;;;;;;;30.13;14.13;;;;;;;2.33;100.00;101216.94;5071467;28;20131;-73
2023/01/24 03:36:19;;;;;;;28.70;14.30;;;;;;;2.26;100.00;101232.31;5071228;28;20256;-74
2023/01/24 03:41:45;;;;;;;29.60;13.93;;;;;;;2.42;100.00;101234.88;5070052;28;20265;-73
2023/01/24 03:44:11;;;;;;;25.70;12.73;;;;;;;2.36;100.00;101232.59;5070025;28;20618;-74
2023/01/24 03:46:39;;;;;;;27.93;13.13;;;;;;;2.34;100.00;101232.69;5071471;28;20123;-74
2023/01/24 03:49:08;;;;;;;25.13;13.27;;;;;;;2.30;100.00;101225.91;5071553;28;20492;-73
2023/01/24 03:54:19;;;;;;;26.53;13.00;;;;;;;2.41;100.00;101243.75;5071262;28;20357;-73
2023/01/24 03:56:44;;;;;;;24.23;12.90;;;;;;;2.41;100.00;101227.91;5071307;28;20344;-73
2023/01/24 03:59:10;;;;;;;24.10;12.63;;;;;;;2.42;100.00;101237.53;5071280;28;20445;-73
2023/01/24 04:01:35;;;;;;;26.20;13.63;;;;;;;2.47;100.00;101231.00;5071419;28;20012;-73
2023/01/24 04:04:01;;;;;;;25.03;13.57;;;;;;;2.44;100.00;101230.34;5071418;28;20025;-73
2023/01/24 04:06:26;;;;;;;27.20;13.77;;;;;;;2.43;100.00;101239.19;5071111;28;20031;-73
2023/01/24 04:08:52;;;;;;;27.07;13.47;;;;;;;2.48;100.00;101240.63;5071268;28;20036;-73
2023/01/24 04:11:18;;;;;;;28.53;13.90;;;;;;;2.41;100.00;101241.94;5070898;28;20044;-73
2023/01/24 04:13:44;;;;;;;27.63;13.70;;;;;;;2.62;100.00;101244.22;5071065;28;20031;-73
2023/01/24 04:16:10;;;;;;;31.30;14.43;;;;;;;2.48;100.00;101232.72;5071020;28;20036;-73
2023/01/24 04:18:38;;;;;;;24.47;12.90;;;;;;;2.49;100.00;101230.91;5071535;28;20028;-73
2023/01/24 04:21:05;;;;;;;27.70;13.90;;;;;;;2.46;100.00;101241.66;5074723;28;20256;-73
2023/01/24 04:23:31;;;;;;;27.63;14.10;;;;;;;2.43;100.00;101237.41;5074498;28;20269;-73
2023/01/24 04:25:59;;;;;;;29.47;14.73;;;;;;;2.36;100.00;101244.00;5074441;28;20273;-74
2023/01/24 04:28:26;;;;;;;26.37;13.43;;;;;;;2.39;100.00;101243.81;5074481;28;20343;-74
2023/01/24 04:31:02;;;;;;;28.33;13.70;;;;;;;2.49;100.00;101241.47;5074381;28;20281;-74
2023/01/24 04:33:27;;;;;;;29.10;13.27;;;;;;;2.54;100.00;101239.38;5074205;28;20249;-74
2023/01/24 04:35:57;;;;;;;27.60;13.90;;;;;;;2.46;100.00;101239.00;5074353;28;20272;-74
2023/01/24 04:38:25;;;;;;;27.57;13.50;;;;;;;2.57;100.00;101241.00;5074195;28;20417;-73
2023/01/24 04:41:01;;;;;;;29.07;14.47;;;;;;;2.41;100.00;101239.31;5074219;28;20257;-74
2023/01/24 04:43:29;;;;;;;28.20;13.97;;;;;;;2.36;100.00;101245.78;5074278;28;20261;-74
2023/01/24 04:45:58;;;;;;;28.60;14.00;;;;;;;2.47;100.00;101244.19;5073062;28;20665;-73
2023/01/24 04:48:24;;;;;;;28.47;14.07;;;;;;;2.38;100.00;101238.63;5074232;28;20340;-73
2023/01/24 04:50:50;;;;;;;26.73;13.67;;;;;;;2.42;100.00;101253.34;5074012;28;20727;-74
2023/01/24 04:53:16;;;;;;;26.23;13.27;;;;;;;2.50;100.00;101251.09;5074115;28;20021;-73
2023/01/24 04:55:41;;;;;;;29.47;14.20;;;;;;;2.45;100.00;101250.50;5073984;28;20731;-73
2023/01/24 04:58:06;;;;;;;27.57;13.87;;;;;;;2.35;100.00;101242.31;5073961;28;20101;-74
2023/01/24 05:00:32;;;;;;;31.47;15.00;;;;;;;2.55;100.00;101246.34;5074048;28;20099;-73
2023/01/24 05:02:57;;;;;;;29.60;14.00;;;;;;;2.52;100.00;101242.16;5074082;28;20024;-73
2023/01/24 05:05:23;;;;;;;28.47;14.20;;;;;;;2.58;100.00;101250.59;5073844;28;20025;-73
2023/01/24 05:07:48;;;;;;;30.17;14.93;;;;;;;2.49;100.00;101249.38;5073701;28;20037;-73
2023/01/24 05:10:14;;;;;;;28.60;14.33;;;;;;;2.38;100.00;101241.28;5073424;28;20131;-73
2023/01/24 05:12:40;;;;;;;32.13;14.63;;;;;;;2.41;100.00;101249.88;5073928;28;20032;-73
2023/01/24 05:15:06;;;;;;;27.90;13.57;;;;;;;2.43;100.00;101245.31;5073720;28;20856;-74
2023/01/24 05:17:32;;;;;;;32.27;14.70;;;;;;;2.36;100.00;101248.44;5073547;28;20027;-73
2023/01/24 05:19:57;;;;;;;31.33;14.27;;;;;;;2.43;100.00;101255.03;5073629;28;20730;-74
2023/01/24 05:22:23;;;;;;;29.27;14.20;;;;;;;2.49;100.00;101255.50;5073604;28;20377;-73
2023/01/24 05:24:48;;;;;;;30.17;14.73;;;;;;;2.47;100.00;101254.75;5073555;28;20025;-73
2023/01/24 05:27:14;;;;;;;29.93;13.57;;;;;;;2.37;100.00;101258.03;5073117;28;20478;-74
2023/01/24 05:29:39;;;;;;;30.20;14.63;;;;;;;2.42;100.00;101258.63;5073525;28;20078;-73
2023/01/24 05:32:05;;;;;;;27.83;14.60;;;;;;;2.52;100.00;101255.34;5072026;28;20359;-73
2023/01/24 05:34:30;;;;;;;31.33;15.07;;;;;;;2.47;100.00;101259.19;5071855;28;20035;-74
2023/01/24 05:36:56;;;;;;;30.10;15.00;;;;;;;2.42;100.00;101263.91;5073206;28;20035;-73
2023/01/24 05:39:21;;;;;;;32.13;14.70;;;;;;;2.45;100.00;101264.53;5073375;28;20025;-73
2023/01/24 05:41:47;;;;;;;27.60;13.77;;;;;;;2.52;100.00;101271.16;5071930;28;20082;-73
2023/01/24 05:44:12;;;;;;;31.87;15.63;;;;;;;2.49;100.00;101273.13;5073080;28;20466;-73
2023/01/24 05:46:41;;;;;;;28.83;14.70;;;;;;;2.36;100.00;101272.19;5073001;28;20021;-73
2023/01/24 05:49:08;;;;;;;31.57;15.03;;;;;;;2.31;100.00;101272.44;5073077;28;20024;-73
2023/01/24 05:51:33;;;;;;;27.43;14.67;;;;;;;2.31;100.00;101271.63;5072884;28;20375;-73
2023/01/24 05:53:59;;;;;;;30.37;14.60;;;;;;;2.29;100.00;101269.06;5072909;28;20292;-73
2023/01/24 05:56:24;;;;;;;29.80;15.13;;;;;;;2.42;100.00;101280.56;5072752;28;20028;-73
2023/01/24 05:58:50;;;;;;;30.23;14.60;;;;;;;2.37;100.00;101282.63;5072787;28;20020;-73
2023/01/24 06:01:19;;;;;;;29.60;15.03;;;;;;;2.33;100.00;101286.41;5072841;28;20388;-73
2023/01/24 06:03:47;;;;;;;30.90;15.07;;;;;;;2.36;100.00;101282.72;5072842;28;20029;-73
2023/01/24 06:06:15;;;;;;;29.67;14.80;;;;;;;2.30;100.00;101283.97;5072528;28;20682;-73
2023/01/24 06:08:42;;;;;;;29.60;14.00;;;;;;;2.32;100.00;101292.59;5072803;28;20261;-73
2023/01/24 06:11:12;;;;;;;31.63;15.10;;;;;;;2.37;100.00;101298.47;5072244;28;20416;-73
2023/01/24 06:13:37;;;;;;;27.23;14.57;;;;;;;2.42;100.00;101293.75;5072608;28;20953;-73
2023/01/24 06:16:21;;;;;;;31.00;15.10;;;;;;;2.52;100.00;101300.19;5072389;28;20261;-73
2023/01/24 06:18:48;;;;;;;29.05;14.05;;;;;;;2.50;100.00;101304.72;5071197;28;20028;-73
2023/01/24 06:21:41;;;;;;;31.73;15.00;;;;;;;2.48;100.00;101311.03;5071066;28;20081;-73
2023/01/24 06:24:15;;;;;;;34.08;15.50;;;;;;;2.46;100.00;101313.75;5072515;28;20345;-73
2023/01/24 06:26:41;;;;;;;31.43;15.33;;;;;;;2.43;100.00;101324.47;5072367;28;20074;-73
2023/01/24 06:29:09;;;;;;;29.63;14.70;;;;;;;2.46;100.00;101318.16;5072390;28;20261;-73
2023/01/24 06:31:47;;;;;;;33.43;16.33;;;;;;;2.52;100.00;101317.81;5072100;28;20036;-73
2023/01/24 06:34:21;;;;;;;31.27;15.57;;;;;;;2.60;100.00;101327.91;5072269;28;20261;-73
2023/01/24 06:37:14;;;;;;;34.20;17.47;;;;;;;2.54;100.00;101326.47;5072403;28;20268;-73
2023/01/24 06:39:49;;;;;;;34.05;16.92;;;;;;;2.49;100.00;101334.69;5072121;28;20261;-73
2023/01/24 06:42:17;;;;;;;34.70;16.53;;;;;;;2.50;100.00;101343.44;5071444;28;20032;-73
2023/01/24 06:44:43;;;;;;;36.00;16.17;;;;;;;2.51;100.00;101346.00;5072124;28;20257;-73
2023/01/24 06:47:10;;;;;;;30.93;14.93;;;;;;;2.57;100.00;101341.28;5072102;28;20634;-73
2023/01/24 06:49:37;;;;;;;33.73;16.07;;;;;;;2.61;100.00;101332.25;5072014;28;20025;-73
2023/01/24 06:52:03;;;;;;;35.17;15.40;;;;;;;2.60;100.00;101338.47;5072084;28;20758;-73
2023/01/24 06:54:28;;;;;;;29.80;14.37;;;;;;;2.63;100.00;101339.13;5072028;28;20261;-73
2023/01/24 06:56:54;;;;;;;34.03;15.93;;;;;;;2.66;100.00;101352.13;5056975;28;20036;-73
2023/01/24 06:59:22;;;;;;;32.30;15.17;;;;;;;2.61;100.00;101346.28;5052064;28;20074;-73
2023/01/24 07:01:49;;;;;;;33.83;16.43;;;;;;;2.59;100.00;101347.31;5052092;28;20019;-73
2023/01/24 07:04:15;;;;;;;34.60;15.93;;;;;;;2.70;100.00;101351.03;5051939;28;20289;-73
2023/01/24 07:06:41;;;;;;;31.50;15.47;;;;;;;2.60;100.00;101362.22;5051910;28;20359;-72
2023/01/24 07:09:06;;;;;;;32.63;15.93;;;;;;;2.55;100.00;101355.41;5050566;28;20032;-73
2023/01/24 07:11:32;;;;;;;33.00;15.77;;;;;;;2.60;100.00;101356.94;5069403;28;20044;-72
2023/01/24 07:13:58;;;;;;;31.27;15.27;;;;;;;2.57;100.00;101357.13;5071571;28;20024;-72
2023/01/24 07:16:23;;;;;;;34.40;15.40;;;;;;;2.57;100.00;101365.03;5071190;28;20020;-72
2023/01/24 07:18:49;;;;;;;34.80;16.20;;;;;;;2.59;100.00;101363.16;5064759;28;20098;-72
2023/01/24 07:21:15;;;;;;;37.03;16.87;;;;;;;2.58;100.00;101367.59;5061696;28;20017;-72
2023/01/24 07:23:46;;;;;;;36.20;16.00;;;;;;;2.52;100.00;101371.47;5085742;28;20473;-72
2023/01/24 07:26:12;;;;;;;32.30;16.33;;;;;;;2.52;100.00;101362.69;5073125;28;20265;-72
2023/01/24 07:28:38;;;;;;;32.17;15.70;;;;;;;2.53;100.00;101367.03;5071109;28;20714;-73
2023/01/24 07:31:04;;;;;;;34.23;16.77;;;;;;;2.49;100.00;101365.50;5070013;28;20277;-73
2023/01/24 07:33:30;;;;;;;33.73;16.57;;;;;;;2.51;100.00;101376.81;5071279;28;20261;-72
2023/01/24 07:35:55;;;;;;;33.07;16.23;;;;;;;2.65;100.00;101376.00;5087421;28;20077;-73
2023/01/24 07:38:21;;;;;;;33.73;15.67;;;;;;;2.56;100.00;101382.66;5071648;28;20020;-72
2023/01/24 07:40:46;;;;;;;34.37;16.33;;;;;;;2.48;100.00;101392.81;5071410;28;20504;-72
2023/01/24 07:43:12;;;;;;;33.13;16.17;;;;;;;2.55;100.00;101388.88;5071282;28;20043;-73
2023/01/24 07:45:38;;;;;;;37.27;16.67;;;;;;;2.48;100.00;101390.19;5057735;28;20056;-72
2023/01/24 07:48:06;;;;;;;35.03;16.67;;;;;;;2.58;100.00;101387.84;5067119;28;20030;-73
2023/01/24 07:50:32;;;;;;;35.80;16.63;;;;;;;2.48;100.00;101390.19;5070847;28;20032;-73
2023/01/24 07:52:58;;;;;;;40.00;17.33;;;;;;;2.59;100.00;101389.56;5067175;28;20817;-73
2023/01/24 07:55:25;;;;;;;36.53;16.77;;;;;;;2.72;100.00;101394.03;5063510;28;20345;-73
2023/01/24 07:57:50;;;;;;;37.47;16.90;;;;;;;2.64;100.00;101393.63;5059955;28;20270;-74
2023/01/24 08:00:16;;;;;;;37.17;16.93;;;;;;;2.61;100.00;101407.00;5055261;28;20276;-74
2023/01/24 08:02:43;;;;;;;37.57;17.43;;;;;;;2.62;100.00;101394.66;5067494;28;20028;-74
2023/01/24 08:05:10;;;;;;;37.93;18.60;;;;;;;2.61;100.00;101400.88;5095640;28;20341;-73
2023/01/24 08:07:36;;;;;;;36.87;17.37;;;;;;;2.70;100.00;101406.47;5095407;28;20353;-72
2023/01/24 08:10:02;;;;;;;35.43;17.27;;;;;;;2.67;100.00;101408.41;5094899;28;20784;-73
2023/01/24 08:12:28;;;;;;;34.93;16.20;;;;;;;2.76;100.00;101403.47;5094976;28;20280;-72
2023/01/24 08:14:53;;;;;;;35.20;16.03;;;;;;;2.73;100.00;101406.28;5094998;28;20268;-72
2023/01/24 08:17:19;;;;;;;34.80;15.83;;;;;;;2.79;100.00;101413.81;5094574;28;20411;-72
2023/01/24 08:19:44;;;;;;;36.13;16.47;;;;;;;2.75;100.00;101409.69;5094699;28;20036;-73
2023/01/24 08:22:10;;;;;;;40.73;17.33;;;;;;;2.77;100.00;101410.41;5094400;28;20260;-72
2023/01/24 08:24:36;;;;;;;36.03;14.93;;;;;;;2.77;100.00;101413.06;5094695;28;20031;-72
2023/01/24 08:27:03;;;;;;;35.30;16.00;;;;;;;2.70;100.00;101417.00;5070451;28;20429;-72
2023/01/24 08:29:29;;;;;;;41.10;16.97;;;;;;;2.73;100.00;101411.56;5054633;28;20033;-72
2023/01/24 08:31:55;;;;;;;41.57;19.17;;;;;;;2.69;100.00;101420.59;5054392;28;20289;-72
2023/01/24 08:34:21;;;;;;;41.43;19.83;;;;;;;2.66;100.00;101422.56;5054429;28;20327;-72
2023/01/24 08:36:47;;;;;;;52.63;23.67;;;;;;;2.57;100.00;101425.75;5064555;28;20265;-72
2023/01/24 08:39:12;;;;;;;38.67;18.47;;;;;;;2.71;100.00;101431.06;5062281;28;20028;-72
2023/01/24 08:41:38;;;;;;;40.97;18.97;;;;;;;2.71;100.00;101425.78;5059148;28;20314;-71
2023/01/24 08:44:05;;;;;;;54.50;24.07;;;;;;;2.69;100.00;101433.78;5066638;28;20035;-71
2023/01/24 08:46:31;;;;;;;43.37;20.70;;;;;;;2.71;100.00;101436.34;5061510;28;20032;-71
2023/01/24 08:48:58;;;;;;;43.83;20.77;;;;;;;2.76;100.00;101440.44;5060220;28;20337;-72
2023/01/24 08:51:24;;;;;;;40.17;18.87;;;;;;;2.90;100.00;101440.44;5052454;28;20376;-71
2023/01/24 08:53:49;;;;;;;36.70;17.37;;;;;;;2.83;100.00;101440.91;5065676;28;20273;-71
2023/01/24 08:56:15;;;;;;;38.97;18.07;;;;;;;2.84;100.00;101438.19;5073868;28;20269;-73
2023/01/24 08:58:41;;;;;;;38.83;17.07;;;;;;;2.89;100.00;101438.72;5074249;28;20028;-73
2023/01/24 09:01:08;;;;;;;37.13;16.57;;;;;;;3.00;100.00;101453.13;5074183;28;20036;-72
2023/01/24 09:03:34;;;;;;;38.83;17.67;;;;;;;2.94;100.00;101445.53;5073821;28;20103;-72
2023/01/24 09:05:59;;;;;;;38.47;17.23;;;;;;;2.89;100.00;101444.00;5073888;28;20349;-72
2023/01/24 09:08:25;;;;;;;37.77;17.40;;;;;;;2.92;100.00;101451.75;5073749;28;20473;-72
2023/01/24 09:10:51;;;;;;;36.23;17.13;;;;;;;2.85;100.00;101447.81;5069316;28;20055;-70
2023/01/24 09:13:17;;;;;;;32.87;16.80;;;;;;;2.94;100.00;101445.53;5066357;28;20631;-71
2023/01/24 09:15:42;;;;;;;36.97;18.00;;;;;;;2.96;100.00;101462.16;5073513;28;20024;-70
2023/01/24 09:18:08;;;;;;;34.20;16.57;;;;;;;2.94;100.00;101461.38;5073531;28;20469;-71
2023/01/24 09:20:34;;;;;;;35.17;16.87;;;;;;;2.90;100.00;101455.44;5056285;28;20498;-71
2023/01/24 09:23:06;;;;;;;37.83;17.10;;;;;;;2.89;100.00;101456.38;5053406;28;20024;-71
2023/01/24 09:25:32;;;;;;;33.35;16.42;;;;;;;2.90;100.00;101458.91;5053218;28;20399;-71
2023/01/24 09:27:57;;;;;;;38.73;17.93;;;;;;;2.90;100.00;101456.28;5053355;28;20032;-71
2023/01/24 09:30:23;;;;;;;41.50;18.83;;;;;;;3.07;100.00;101463.22;5052582;28;20471;-70
2023/01/24 09:32:48;;;;;;;40.03;17.80;;;;;;;3.01;100.00;101460.91;5053167;28;20095;-69
2023/01/24 09:35:14;;;;;;;40.47;18.10;;;;;;;3.04;100.00;101455.47;5052028;28;20024;-70
2023/01/24 09:37:42;;;;;;;44.60;19.67;;;;;;;3.04;100.00;101460.75;5052963;28;20037;-72
2023/01/24 09:40:45;;;;;;;38.60;17.60;;;;;;;3.14;100.00;101472.47;5053337;28;20718;-71
2023/01/24 09:43:30;;;;;;;35.33;17.00;;;;;;;3.11;100.00;101469.16;5052792;28;20306;-72
2023/01/24 09:46:09;;;;;;;33.17;15.50;;;;;;;3.12;100.00;101465.56;5053047;28;20249;-72
2023/01/24 09:48:34;;;;;;;31.73;14.93;;;;;;;3.13;100.00;101465.47;5052909;28;20352;-71
2023/01/24 09:51:06;;;;;;;33.57;16.00;;;;;;;3.11;100.00;101455.97;5052728;28;20357;-72
2023/01/24 09:54:01;;;;;;;33.83;16.73;;;;;;;3.15;100.00;101457.47;5052825;28;20037;-71
2023/01/24 09:56:38;;;;;;;35.73;16.57;;;;;;;3.19;100.00;101456.34;5052445;28;20748;-72
2023/01/24 09:59:21;;;;;;;38.20;16.93;;;;;;;3.09;100.00;101455.19;5052746;28;20276;-72
2023/01/24 10:01:48;;;;;;;33.67;16.80;;;;;;;3.15;100.00;101453.03;5051300;28;20270;-71
2023/01/24 10:04:35;;;;;;;31.73;14.73;;;;;;;3.19;100.00;101446.63;5051245;28;20383;-71
2023/01/24 10:07:13;;;;;;;34.40;16.13;;;;;;;3.07;100.00;101451.78;5052269;28;20806;-71
2023/01/24 10:10:03;;;;;;;30.87;14.67;;;;;;;2.89;100.00;101446.66;5052009;28;20262;-71
2023/01/24 10:12:54;;;;;;;30.87;14.97;;;;;;;2.99;100.00;101446.97;5052051;28;20412;-71
2023/01/24 10:15:32;;;;;;;33.93;16.00;;;;;;;3.05;100.00;101451.88;5064334;28;20603;-71
2023/01/24 10:18:10;;;;;;;33.97;15.50;;;;;;;3.05;100.00;101443.97;5072178;28;20261;-71
2023/01/24 10:20:47;;;;;;;33.60;16.17;;;;;;;3.07;100.00;101443.88;5072039;28;20265;-70
2023/01/24 10:23:36;;;;;;;31.60;14.67;;;;;;;3.05;100.00;101440.47;5072148;28;20279;-71
2023/01/24 10:26:26;;;;;;;30.17;15.80;;;;;;;3.13;100.00;101444.34;5072051;28;20256;-71
2023/01/24 10:28:55;;;;;;;30.80;14.37;;;;;;;3.20;100.00;101450.97;5071974;28;20261;-71
2023/01/24 10:31:30;;;;;;;33.77;15.57;;;;;;;3.11;100.00;101448.03;5071749;28;20645;-71
2023/01/24 10:34:08;;;;;;;34.23;15.53;;;;;;;3.13;100.00;101440.84;5053538;28;20254;-71
2023/01/24 10:37:04;;;;;;;32.83;15.43;;;;;;;3.07;100.00;101436.81;5051744;28;20258;-70
2023/01/24 11:19:33;;;;;;;30.47;15.50;;;;;;;3.32;100.00;101406.25;5130327;27;20379;-73
2023/01/24 11:22:19;;;;;;;30.47;16.33;;;;;;;3.40;100.00;101407.47;5110337;28;20264;-73
2023/01/24 11:24:46;;;;;;;31.47;14.90;;;;;;;3.49;100.00;101400.75;5109997;28;20268;-74
2023/01/24 11:27:19;;;;;;;29.30;13.60;;;;;;;3.42;100.00;101400.28;5109717;28;20268;-73
2023/01/24 11:30:03;;;;;;;28.20;13.23;;;;;;;3.43;100.00;101398.50;5109705;28;20354;-73
2023/01/24 11:32:39;;;;;;;;;;;;;;;3.59;100.00;101404.50;5108842;28;20024;-74
2023/01/24 11:35:34;;;;;;;28.93;14.27;;;;;;;3.58;100.00;101402.81;5110156;28;19918;-73
2023/01/24 11:38:48;;;;;;;31.57;15.37;;;;;;;3.54;100.00;101396.03;5109487;28;20252;-74
2023/01/24 11:41:41;;;;;;;29.90;14.40;;;;;;;3.61;100.00;101397.31;5026603;28;20266;-72
2023/01/24 11:44:35;;;;;;;31.40;15.27;;;;;;;3.57;100.00;101403.78;5026435;28;20255;-74
2023/01/24 11:47:13;;;;;;;30.00;14.67;;;;;;;3.43;100.00;101399.34;5026988;28;20271;-74
2023/01/24 11:50:05;;;;;;;33.00;15.50;;;;;;;3.42;100.00;101399.44;5026652;28;20274;-74
2023/01/24 11:53:00;;;;;;;32.80;15.67;;;;;;;3.34;100.00;101388.50;5010191;28;20263;-75
2023/01/24 11:56:03;;;;;;;29.70;14.40;;;;;;;3.37;100.00;101391.78;5026857;28;20386;-73
2023/01/24 11:58:40;;;;;;;34.50;16.23;;;;;;;3.36;100.00;101392.72;5214134;22;20298;-76
2023/01/24 12:01:19;;;;;;;36.53;16.97;;;;;;;3.24;100.00;101385.56;5049314;28;20748;-75
2023/01/24 12:04:01;;;;;;;31.07;14.87;;;;;;;3.33;100.00;101390.28;5049420;28;20292;-76
2023/01/24 12:06:35;;;;;;;33.23;16.90;;;;;;;3.35;100.00;101401.59;5049351;28;20316;-75
2023/01/24 12:09:24;;;;;;;33.47;15.20;;;;;;;3.43;100.00;101398.50;5067443;28;20259;-75
2023/01/24 12:12:05;;;;;;;30.60;15.10;;;;;;;3.40;100.00;101391.59;5068696;28;20254;-75
2023/01/24 12:14:43;;;;;;;29.80;15.47;;;;;;;3.38;100.00;101385.56;5068487;28;20280;-75
2023/01/24 12:17:27;;;;;;;30.53;14.30;;;;;;;3.36;100.00;101382.16;5050622;28;20348;-74
2023/01/24 12:20:11;;;;;;;32.57;14.83;;;;;;;3.51;100.00;101388.28;5056928;28;20314;-76
2023/01/24 12:22:38;;;;;;;25.88;13.68;;;;;;;3.35;100.00;101383.09;5055648;28;20254;-76
2023/01/24 12:25:25;;;;;;;30.23;14.97;;;;;;;3.52;100.00;101389.97;5055315;28;20434;-75
2023/01/24 12:27:55;;;;;;;32.03;15.13;;;;;;;3.42;100.00;101387.06;5055433;28;20293;-76
2023/01/24 12:30:28;;;;;;;31.33;15.23;;;;;;;3.41;100.00;101381.88;5055484;28;20257;-76
2023/01/24 12:33:18;;;;;;;30.33;15.48;;;;;;;3.46;100.00;101374.53;5065772;28;20278;-76
2023/01/24 12:35:49;;;;;;;26.93;13.30;;;;;;;3.33;100.00;101371.81;5080800;28;20044;-75
2023/01/24 12:38:21;;;;;;;26.73;14.17;;;;;;;3.39;100.00;101378.47;5078634;28;20254;-76
2023/01/24 12:41:06;;;;;;;29.88;15.80;;;;;;;3.45;100.00;101365.75;5074762;28;20272;-76
2023/01/24 12:44:03;;;;;;;31.43;16.47;;;;;;;3.47;100.00;101378.84;5074710;28;20029;-77